Casper, WY

11:25 AM MST on November 27, 2014 (GMT -0700)
Casper Mountain Foothills | Change Station
CLOSE
Current Station
Personal Weather Station
Location: Casper, WY
Elevation: 5334 ft
Nearby Weather Stations
Active Advisory: Special Statement

Elev 5334 ft 42.83 °N, 106.31 °W | Updated 42 seconds ago

Partly Cloudy
Partly Cloudy
51.0 °F
Feels Like 51.0 °F
N
12.0
Wind Variable Wind from South
Gusts 17.0 mph

Today
High -- | Low -- °F
--% Chance of Precip.
Yesterday
High -- | Low -- °F
Precip. -- in
7:11 AM 4:33 PM
Waxing Crescent, 31% visible
Pressure 30.08 in
Visibility 10.0 miles
Clouds Clear
Dew Point 21 °F
Humidity 31%
Rainfall 0.00 in
Snow Depth Not available.
UV 2 out of 12
Pollen .10 out of 12
Air Quality Not available.
Flu Activity Not available.
METAR KCPR 271753Z 22023G32KT 10SM CLR 08/M04 A3009 RMK AO2 PK WND 22032/1748 SLP186 T00781044 10078 20039 58009

More Conditions Fewer Conditions

Pressure 30.08 in
Visibility 10.0 miles
Clouds Clear
Dew Point 21 °F
Humidity 31%
Rainfall 0.00 in
Snow Depth Not available.
UV 2 out of 12
Pollen .10 out of 12
Air Quality Not available.
Flu Activity Not available.
METAR KCPR 271753Z 22023G32KT 10SM CLR 08/M04 A3009 RMK AO2 PK WND 22032/1748 SLP186 T00781044 10078 20039 58009

More Conditions Fewer Conditions

10-Day Weather Forecast

Almanac

Astronomy

Nov. 27, 2014 Rise Set
Actual Time
Civil Twilight
Nautical Twilight
Astronomical Twilight
Moon
Length of Visible Light
Length of Day
Tomorrow will be .
, % of the Moon is Illuminated

Today's Extremes

State Highs State Lows

Community

WunderPhotos

Upload Photos

1,774,079 photos uploaded!

WunderBlogs® & News

Nearby

Air Quality

  Air Quality AQ Index Pollutant
Not available.

Snow Depth

Station Depth Elevation

Earthquake Activity

City Distance Mag. Time & Date
Minimum magnitude displayed is 2.5.

Coastal Water Temperatures

Place Temperature

Nearby Weather Stations